Time;durP1;ratioP1;P1;durP2;ratioP2;P2;SDS_P1;SDS_P2;PMS_P1;PMS_P2;Temp;Humidity;BMP_temperature;BMP_pressure;BME280_temperature;BME280_humidity;BME280_pressure;Samples;Min_cycle;Max_cycle;Signal;HPM_P1;HPM_P2
2022/03/26 00:00:12;;;;;;;23.92;9.52;;;;;;;13.07;37.66;101338.41;5051734;28;20053;-59
2022/03/26 00:02:39;;;;;;;17.45;9.15;;;;;;;13.04;37.58;101342.03;5051445;28;20452;-59
2022/03/26 00:05:06;;;;;;;19.50;8.52;;;;;;;13.03;37.72;101342.97;5051640;28;20059;-60
2022/03/26 00:07:33;;;;;;;19.02;9.75;;;;;;;13.01;37.67;101337.72;5051603;28;20063;-61
2022/03/26 00:10:00;;;;;;;16.23;8.98;;;;;;;13.00;37.96;101338.66;5051155;28;20052;-60
2022/03/26 00:12:26;;;;;;;21.40;10.02;;;;;;;12.99;37.75;101344.88;5051470;28;20410;-62
2022/03/26 00:14:53;;;;;;;19.23;9.38;;;;;;;12.98;37.84;101339.66;5051477;28;20535;-59
2022/03/26 00:17:19;;;;;;;21.70;9.18;;;;;;;12.96;37.70;101336.19;5051431;28;20060;-59
2022/03/26 00:19:46;;;;;;;22.17;10.90;;;;;;;12.94;37.92;101338.94;5050972;28;20053;-61
2022/03/26 00:22:13;;;;;;;18.60;10.10;;;;;;;12.93;37.81;101345.13;5051603;28;20049;-62
2022/03/26 00:24:39;;;;;;;21.08;9.45;;;;;;;12.91;38.05;101339.06;5051167;28;20052;-61
2022/03/26 00:27:06;;;;;;;18.38;9.02;;;;;;;12.92;38.00;101339.88;5051269;28;20098;-59
2022/03/26 00:29:32;;;;;;;24.00;10.02;;;;;;;12.90;38.04;101346.09;5050829;28;20452;-59
2022/03/26 00:31:59;;;;;;;20.67;9.65;;;;;;;12.89;38.14;101344.41;5050900;28;20048;-62
2022/03/26 00:34:25;;;;;;;23.42;10.77;;;;;;;12.88;37.99;101344.44;5050835;28;20053;-60
2022/03/26 00:36:52;;;;;;;20.98;10.23;;;;;;;12.87;37.89;101345.38;5051404;28;20106;-61
2022/03/26 00:39:19;;;;;;;24.75;10.43;;;;;;;12.85;38.05;101350.72;5050876;28;20102;-62
2022/03/26 00:41:45;;;;;;;18.83;9.88;;;;;;;12.82;37.98;101348.19;5051114;28;20064;-60
2022/03/26 00:44:12;;;;;;;26.13;10.00;;;;;;;12.80;38.16;101344.78;5050849;28;20481;-60
2022/03/26 00:46:39;;;;;;;21.95;10.13;;;;;;;12.78;38.23;101351.91;5049800;28;20064;-60
2022/03/26 00:49:05;;;;;;;24.40;10.55;;;;;;;12.74;38.37;101337.97;5050393;28;20490;-64
2022/03/26 00:51:32;;;;;;;22.45;10.15;;;;;;;12.74;38.55;101339.72;5050644;28;20122;-60
2022/03/26 00:53:59;;;;;;;26.98;10.07;;;;;;;12.74;38.41;101337.09;5050716;28;20041;-60
2022/03/26 00:56:25;;;;;;;22.20;10.75;;;;;;;12.74;38.49;101339.72;5050453;28;20409;-61
2022/03/26 00:58:52;;;;;;;20.02;9.95;;;;;;;12.74;38.71;101342.38;5050324;28;20103;-59
2022/03/26 01:01:18;;;;;;;24.33;9.18;;;;;;;12.72;38.35;101337.19;5050251;28;20057;-59
2022/03/26 01:03:46;;;;;;;21.38;10.18;;;;;;;12.72;38.50;101338.94;5050323;28;20056;-60
2022/03/26 01:06:14;;;;;;;19.25;9.85;;;;;;;12.70;38.45;101336.34;5050523;28;20076;-59
2022/03/26 01:08:40;;;;;;;21.60;9.55;;;;;;;12.68;38.43;101332.94;5049281;28;20056;-60
2022/03/26 01:11:07;;;;;;;17.60;10.40;;;;;;;12.65;38.63;101327.75;5050117;28;20110;-61
2022/03/26 01:13:34;;;;;;;21.92;10.63;;;;;;;12.64;38.49;101331.34;5050437;28;20079;-60
2022/03/26 01:16:02;;;;;;;18.45;9.38;;;;;;;12.61;38.71;101329.69;5048942;28;20049;-60
2022/03/26 01:18:28;;;;;;;23.23;10.25;;;;;;;12.60;38.54;101333.22;5048898;28;20409;-59
2022/03/26 01:20:55;;;;;;;21.63;9.73;;;;;;;12.58;38.57;101321.00;5050114;28;20049;-60
2022/03/26 01:23:22;;;;;;;20.17;9.85;;;;;;;12.55;38.60;101319.34;5050330;28;20052;-60
2022/03/26 01:25:49;;;;;;;21.80;10.57;;;;;;;12.55;38.71;101326.41;5050224;28;20053;-60
2022/03/26 01:28:16;;;;;;;23.10;10.70;;;;;;;12.53;38.87;101328.25;5050194;28;20045;-59
2022/03/26 01:30:42;;;;;;;19.48;9.93;;;;;;;12.50;38.70;101327.47;5049728;28;20504;-60
2022/03/26 01:33:09;;;;;;;20.92;10.68;;;;;;;12.48;39.13;101333.72;5050022;28;20558;-60
2022/03/26 01:35:36;;;;;;;19.65;10.43;;;;;;;12.46;38.95;101335.56;5050203;28;20068;-60
2022/03/26 01:38:05;;;;;;;22.00;11.63;;;;;;;12.45;39.17;101328.56;5048823;28;20053;-62
2022/03/26 01:40:33;;;;;;;20.40;10.73;;;;;;;12.41;39.19;101330.44;5049920;28;20144;-59
2022/03/26 01:43:00;;;;;;;19.40;9.40;;;;;;;12.38;39.00;101331.44;5048934;28;20119;-59
2022/03/26 01:45:27;;;;;;;24.15;10.52;;;;;;;12.35;39.31;101321.00;5049963;28;20091;-60
2022/03/26 01:47:55;;;;;;;22.60;10.65;;;;;;;12.33;39.50;101317.56;5048859;28;20060;-60
2022/03/26 01:50:23;;;;;;;18.05;9.65;;;;;;;12.33;39.20;101327.25;5049334;28;20041;-58
2022/03/26 01:52:51;;;;;;;19.92;9.85;;;;;;;12.31;39.35;101319.41;5050000;28;20084;-59
2022/03/26 01:55:18;;;;;;;20.90;10.45;;;;;;;12.30;39.20;101316.81;5065226;28;20057;-60
2022/03/26 01:57:46;;;;;;;21.42;9.93;;;;;;;12.29;39.40;101304.56;5049110;28;20398;-60
2022/03/26 02:00:13;;;;;;;18.33;10.30;;;;;;;12.26;39.32;101310.78;5053856;28;20065;-59
2022/03/26 02:02:43;;;;;;;21.83;10.65;;;;;;;12.25;39.21;101309.94;5052811;28;20107;-60
2022/03/26 02:05:14;;;;;;;26.63;11.00;;;;;;;12.24;39.60;101302.06;5052914;28;20052;-60
2022/03/26 02:07:44;;;;;;;21.85;10.98;;;;;;;12.21;39.98;101304.84;5054006;28;20106;-62
2022/03/26 02:10:12;;;;;;;18.98;10.45;;;;;;;12.19;40.03;101304.03;5052060;28;20467;-59
2022/03/26 02:12:39;;;;;;;19.88;11.50;;;;;;;12.16;39.85;101309.44;5053990;28;20174;-60
2022/03/26 02:15:07;;;;;;;30.35;11.63;;;;;;;12.12;40.00;101300.78;5053976;28;20084;-60
2022/03/26 02:17:34;;;;;;;18.88;10.70;;;;;;;12.08;39.67;101307.09;5052405;28;20056;-62
2022/03/26 02:20:03;;;;;;;21.33;9.70;;;;;;;12.04;39.64;101308.09;5053456;28;20053;-61
2022/03/26 02:22:31;;;;;;;23.88;11.45;;;;;;;12.01;39.75;101305.56;5052128;28;20095;-60
2022/03/26 02:24:57;;;;;;;18.85;10.20;;;;;;;11.95;39.66;101294.34;5052114;28;20540;-61
2022/03/26 02:27:29;;;;;;;19.27;10.60;;;;;;;11.91;39.78;101303.28;5053960;28;20063;-60
2022/03/26 02:29:56;;;;;;;21.98;10.43;;;;;;;11.88;39.74;101303.41;5052027;28;20102;-61
2022/03/26 02:32:26;;;;;;;23.85;11.82;;;;;;;11.84;39.79;101307.94;5053514;28;20049;-60
2022/03/26 02:34:53;;;;;;;19.10;10.85;;;;;;;11.81;39.72;101307.19;5052080;28;20122;-60
2022/03/26 02:37:28;;;;;;;24.38;10.88;;;;;;;11.77;39.69;101316.16;5053518;28;20520;-60
2022/03/26 02:39:55;;;;;;;18.73;10.65;;;;;;;11.73;39.87;101313.59;5053234;28;20067;-60
2022/03/26 02:42:21;;;;;;;27.02;12.10;;;;;;;11.69;39.95;101306.72;5053128;28;20049;-62
2022/03/26 02:44:48;;;;;;;22.67;12.10;;;;;;;11.66;40.00;101306.00;5053195;28;20053;-61
2022/03/26 02:47:14;;;;;;;25.00;11.63;;;;;;;11.64;40.03;101307.81;5052843;28;20053;-60
2022/03/26 02:49:41;;;;;;;26.13;13.20;;;;;;;11.60;39.94;101312.34;5052675;28;20095;-61
2022/03/26 02:52:08;;;;;;;23.17;13.77;;;;;;;11.59;40.04;101308.00;5052834;28;20532;-61
2022/03/26 02:54:35;;;;;;;27.02;13.68;;;;;;;11.56;40.03;101302.81;5053088;28;20056;-59
2022/03/26 02:57:03;;;;;;;30.40;15.75;;;;;;;11.54;40.17;101310.78;5051815;28;20084;-62
2022/03/26 02:59:30;;;;;;;28.83;14.90;;;;;;;11.53;40.21;101310.84;5051628;28;20091;-59
2022/03/26 03:01:57;;;;;;;23.58;13.73;;;;;;;11.50;40.28;101310.94;5052980;28;20106;-59
2022/03/26 03:04:24;;;;;;;27.63;13.88;;;;;;;11.48;40.16;101308.38;5051514;28;20052;-59
2022/03/26 03:06:51;;;;;;;31.80;15.50;;;;;;;11.45;40.46;101301.41;5052754;28;20045;-59
2022/03/26 03:09:18;;;;;;;32.28;16.50;;;;;;;11.44;40.70;101304.97;5051640;28;20053;-59
2022/03/26 03:11:45;;;;;;;31.45;16.88;;;;;;;11.42;40.51;101304.19;5052674;28;20084;-59
2022/03/26 03:14:11;;;;;;;32.83;18.58;;;;;;;11.42;40.81;101306.81;5068110;28;20060;-59
2022/03/26 03:16:38;;;;;;;37.42;19.00;;;;;;;11.42;40.92;101298.03;5052536;28;20075;-61
2022/03/26 03:19:05;;;;;;;39.03;20.75;;;;;;;11.41;41.10;101301.59;5052442;28;20084;-64
2022/03/26 03:21:32;;;;;;;38.53;20.17;;;;;;;11.40;41.00;101294.59;5052900;28;20052;-60
2022/03/26 03:23:58;;;;;;;42.97;21.15;;;;;;;11.39;40.98;101292.84;5052507;28;20432;-61
2022/03/26 03:26:25;;;;;;;38.22;21.90;;;;;;;11.38;41.30;101294.66;5052578;28;20061;-60
2022/03/26 03:28:52;;;;;;;43.03;20.60;;;;;;;11.39;41.14;101295.50;5052484;28;20056;-60
2022/03/26 03:31:19;;;;;;;35.78;19.88;;;;;;;11.38;41.07;101302.56;5052175;28;20053;-58
2022/03/26 03:33:46;;;;;;;40.97;20.60;;;;;;;11.38;41.15;101293.78;5052608;28;20059;-60
2022/03/26 03:36:13;;;;;;;39.50;20.90;;;;;;;11.38;41.37;101296.41;5051063;28;20493;-61
2022/03/26 03:38:40;;;;;;;39.28;20.58;;;;;;;11.36;41.44;101300.91;5052161;28;20832;-59
2022/03/26 03:41:07;;;;;;;36.92;20.58;;;;;;;11.33;41.42;101300.06;5052110;28;20087;-59
2022/03/26 03:43:33;;;;;;;38.58;20.58;;;;;;;11.32;41.63;101302.75;5067385;28;20065;-60
2022/03/26 03:46:00;;;;;;;43.13;21.85;;;;;;;11.31;41.56;101295.78;5051881;28;20056;-59
2022/03/26 03:48:28;;;;;;;33.33;19.48;;;;;;;11.28;41.47;101302.03;5051910;28;20136;-62
2022/03/26 03:50:55;;;;;;;37.85;20.58;;;;;;;11.28;41.52;101295.88;5051783;28;20489;-60
2022/03/26 03:53:21;;;;;;;38.25;21.23;;;;;;;11.25;41.58;101294.22;5050568;28;20053;-63
2022/03/26 03:55:48;;;;;;;37.20;20.42;;;;;;;11.24;41.59;101295.13;5051828;28;20539;-59
2022/03/26 03:58:14;;;;;;;40.25;20.67;;;;;;;11.23;41.68;101288.16;5051769;28;20448;-60
2022/03/26 04:00:41;;;;;;;36.75;20.17;;;;;;;11.22;41.94;101291.72;5051158;28;20102;-60
2022/03/26 04:03:08;;;;;;;39.35;22.08;;;;;;;11.20;42.01;101282.97;5051543;28;20053;-61
2022/03/26 04:05:35;;;;;;;37.40;21.67;;;;;;;11.18;41.95;101283.03;5051892;28;20122;-59
2022/03/26 04:08:02;;;;;;;39.30;21.67;;;;;;;11.17;41.92;101288.34;5050415;28;20060;-61
2022/03/26 04:10:29;;;;;;;37.17;21.90;;;;;;;11.16;42.20;101284.00;5050125;28;20057;-59
2022/03/26 04:12:57;;;;;;;39.83;21.17;;;;;;;11.14;42.02;101283.19;5051365;28;20048;-60
2022/03/26 04:15:24;;;;;;;37.20;21.48;;;;;;;11.12;42.28;101275.34;5051333;28;20052;-60
2022/03/26 04:17:54;;;;;;;35.42;20.80;;;;;;;11.10;42.31;101284.22;5051220;28;20079;-59
2022/03/26 04:20:21;;;;;;;45.08;21.75;;;;;;;11.08;41.98;101285.16;5051047;28;20049;-59
2022/03/26 04:22:47;;;;;;;41.75;21.25;;;;;;;11.08;42.13;101286.91;5051223;28;20095;-59
2022/03/26 04:25:14;;;;;;;37.55;20.73;;;;;;;11.06;42.31;101286.06;5051096;28;20044;-62
2022/03/26 04:27:46;;;;;;;32.75;19.65;;;;;;;11.02;42.50;101285.34;5051147;28;20624;-59
2022/03/26 04:30:13;;;;;;;36.75;19.88;;;;;;;11.00;42.48;101281.91;5049997;28;20041;-59
2022/03/26 04:32:40;;;;;;;41.17;21.90;;;;;;;10.98;42.60;101277.59;5051546;28;20061;-59
2022/03/26 04:35:07;;;;;;;32.67;19.17;;;;;;;10.96;42.50;101280.28;5051181;28;20045;-60
2022/03/26 04:37:34;;;;;;;37.95;20.33;;;;;;;10.93;42.71;101286.53;5051029;28;20452;-60
2022/03/26 04:40:02;;;;;;;35.58;20.05;;;;;;;10.92;42.77;101289.22;5050717;28;20060;-60
2022/03/26 04:42:28;;;;;;;41.65;21.67;;;;;;;10.90;42.89;101286.63;5049720;28;20064;-62
2022/03/26 04:44:55;;;;;;;37.75;20.92;;;;;;;10.89;43.04;101282.28;5051038;28;20052;-59
2022/03/26 04:47:22;;;;;;;38.42;22.55;;;;;;;10.90;43.12;101291.00;5050818;28;20106;-60
2022/03/26 04:49:48;;;;;;;38.90;21.02;;;;;;;10.89;43.20;101292.81;5050747;28;20647;-58
2022/03/26 04:52:15;;;;;;;40.10;22.23;;;;;;;10.90;43.15;101299.78;5050795;28;20114;-60
2022/03/26 04:54:43;;;;;;;42.50;22.67;;;;;;;10.90;43.43;101297.16;5050732;28;20406;-60
2022/03/26 04:57:10;;;;;;;43.65;21.90;;;;;;;10.92;43.24;101299.75;5050519;28;20489;-60
2022/03/26 04:59:36;;;;;;;44.40;22.45;;;;;;;10.92;43.49;101290.06;5050352;28;20203;-60
2022/03/26 05:02:03;;;;;;;42.38;23.35;;;;;;;10.95;43.52;101303.13;5050645;28;20460;-60
2022/03/26 05:04:30;;;;;;;40.78;22.88;;;;;;;10.96;43.47;101301.38;5050796;28;20048;-59
2022/03/26 05:06:57;;;;;;;42.65;22.27;;;;;;;10.97;43.38;101303.06;5050574;28;20060;-61
2022/03/26 05:09:24;;;;;;;41.05;22.05;;;;;;;10.97;43.28;101296.94;5050168;28;20102;-59
2022/03/26 05:11:50;;;;;;;45.05;23.42;;;;;;;10.97;43.24;101302.22;5050629;28;20505;-61
2022/03/26 05:14:17;;;;;;;42.17;22.83;;;;;;;10.97;43.49;101299.56;5049328;28;20111;-60
2022/03/26 05:16:44;;;;;;;42.58;22.65;;;;;;;10.95;43.35;101304.88;5049089;28;20405;-60
2022/03/26 05:19:11;;;;;;;40.83;22.23;;;;;;;10.94;43.55;101304.03;5050139;28;20059;-61
2022/03/26 05:21:38;;;;;;;44.58;23.77;;;;;;;10.95;43.61;101304.88;5050259;28;20123;-60
2022/03/26 05:24:05;;;;;;;41.67;23.88;;;;;;;10.95;43.64;101305.75;5050305;28;20157;-59
2022/03/26 05:26:32;;;;;;;41.67;22.02;;;;;;;10.96;43.57;101306.63;5049267;28;20063;-60
2022/03/26 05:29:00;;;;;;;40.88;21.98;;;;;;;10.97;43.38;101297.81;5050278;28;20513;-60
2022/03/26 05:31:28;;;;;;;44.25;22.92;;;;;;;10.99;43.30;101303.88;5050110;28;20132;-61
2022/03/26 05:33:55;;;;;;;46.25;23.27;;;;;;;10.99;43.33;101309.16;5054242;28;20107;-60
2022/03/26 05:36:22;;;;;;;43.13;24.17;;;;;;;10.99;43.57;101306.50;5056832;28;20489;-60
2022/03/26 05:38:48;;;;;;;52.25;24.85;;;;;;;10.99;43.59;101305.66;5057036;28;20107;-59
2022/03/26 05:41:15;;;;;;;53.70;25.05;;;;;;;10.98;43.41;101303.94;5056625;28;20499;-59
2022/03/26 05:43:41;;;;;;;51.10;25.58;;;;;;;10.95;43.23;101312.78;5056794;28;20194;-58
2022/03/26 05:46:08;;;;;;;53.30;24.33;;;;;;;10.93;43.38;101312.00;5056792;28;20053;-60
2022/03/26 05:48:36;;;;;;;47.05;23.52;;;;;;;10.91;43.63;101319.94;5056730;28;20045;-60
2022/03/26 05:51:02;;;;;;;46.15;24.70;;;;;;;10.90;43.68;101320.88;5055091;28;20055;-60
2022/03/26 05:53:29;;;;;;;44.80;23.65;;;;;;;10.91;43.86;101319.94;5056680;28;20064;-60
2022/03/26 05:55:55;;;;;;;42.88;23.63;;;;;;;10.94;43.85;101326.88;5056882;28;20056;-60
2022/03/26 05:58:22;;;;;;;48.40;24.77;;;;;;;10.96;43.79;101322.44;5055723;28;20056;-59
2022/03/26 06:00:49;;;;;;;41.88;22.85;;;;;;;10.99;43.54;101326.75;5056329;28;20044;-60
2022/03/26 06:03:18;;;;;;;44.92;21.50;;;;;;;11.01;43.64;101325.78;5056934;28;20141;-60
2022/03/26 06:05:46;;;;;;;46.35;21.77;;;;;;;11.06;43.51;101338.78;5055497;28;20151;-60
2022/03/26 06:08:13;;;;;;;46.20;23.95;;;;;;;11.07;43.69;101333.47;5055561;28;20045;-60
2022/03/26 06:10:40;;;;;;;44.92;23.45;;;;;;;11.10;43.73;101339.56;5056450;28;20509;-60
2022/03/26 06:13:07;;;;;;;51.47;26.95;;;;;;;11.13;43.92;101344.72;5056704;28;20049;-62
2022/03/26 06:15:34;;;;;;;52.75;27.25;;;;;;;11.16;43.80;101347.25;5056574;28;20045;-59
2022/03/26 06:18:12;;;;;;;50.97;26.48;;;;;;;11.19;43.69;101353.28;5055451;28;20449;-60
2022/03/26 06:20:42;;;;;;;50.00;26.13;;;;;;;11.23;43.85;101359.31;5054851;28;20053;-60
2022/03/26 06:23:11;;;;;;;53.53;25.48;;;;;;;11.26;44.21;101359.22;5055107;28;20053;-60
2022/03/26 06:25:39;;;;;;;46.67;25.63;;;;;;;11.31;43.76;101370.47;5054357;28;20485;-60
2022/03/26 06:28:06;;;;;;;49.53;25.73;;;;;;;11.34;43.83;101369.50;5055846;28;20502;-59
2022/03/26 06:30:33;;;;;;;48.10;25.80;;;;;;;11.38;43.80;101367.59;5056397;28;20076;-59
2022/03/26 06:33:00;;;;;;;48.58;25.88;;;;;;;11.40;43.86;101368.44;5056570;28;20148;-61
2022/03/26 06:35:27;;;;;;;49.63;25.20;;;;;;;11.44;43.96;101373.53;5056522;28;20142;-61
2022/03/26 06:37:54;;;;;;;40.75;23.35;;;;;;;11.48;44.00;101376.94;5056308;28;20387;-60
2022/03/26 06:40:20;;;;;;;47.88;24.77;;;;;;;11.52;44.02;101375.03;5056026;28;20072;-59
2022/03/26 06:42:47;;;;;;;41.50;22.50;;;;;;;11.54;43.86;101374.06;5056042;28;20095;-61
2022/03/26 06:45:16;;;;;;;46.08;25.10;;;;;;;11.58;43.84;101377.44;5053347;28;20053;-61
2022/03/26 06:47:43;;;;;;;57.80;26.85;;;;;;;11.61;44.04;101382.63;5053189;28;20460;-60
2022/03/26 06:50:10;;;;;;;46.20;24.42;;;;;;;11.65;44.08;101380.72;5052770;28;20041;-60
2022/03/26 06:52:37;;;;;;;47.08;24.23;;;;;;;11.69;43.99;101385.00;5053291;28;20114;-59
2022/03/26 06:55:06;;;;;;;51.45;25.50;;;;;;;11.71;44.23;101381.38;5053137;28;20064;-62
2022/03/26 06:57:33;;;;;;;52.72;26.90;;;;;;;11.75;44.28;101384.78;5051697;28;20092;-62
2022/03/26 07:00:00;;;;;;;47.00;25.15;;;;;;;11.79;44.27;101380.25;5052632;28;20057;-60
2022/03/26 07:02:27;;;;;;;53.30;24.90;;;;;;;11.82;44.08;101382.78;5052969;28;20048;-60
2022/03/26 07:04:54;;;;;;;52.80;26.02;;;;;;;11.84;44.08;101387.09;5051911;28;20084;-60
2022/03/26 07:07:21;;;;;;;47.75;25.35;;;;;;;11.90;44.04;101400.97;5052596;28;20463;-60
2022/03/26 07:09:47;;;;;;;46.47;24.92;;;;;;;11.93;44.03;101395.59;5052076;28;20053;-62
2022/03/26 07:12:14;;;;;;;55.33;25.75;;;;;;;11.97;44.32;101405.13;5052072;28;20053;-62
2022/03/26 07:14:41;;;;;;;53.65;26.13;;;;;;;11.99;44.05;101398.88;5051836;28;20048;-60
2022/03/26 07:17:07;;;;;;;52.00;25.88;;;;;;;12.03;44.23;101407.53;5049619;28;20099;-61
2022/03/26 07:19:34;;;;;;;46.42;25.30;;;;;;;12.07;44.04;101406.53;5052450;28;20131;-61
2022/03/26 07:22:01;;;;;;;50.00;25.58;;;;;;;12.13;44.21;101413.38;5051351;28;20068;-60
2022/03/26 07:24:27;;;;;;;47.65;26.30;;;;;;;12.17;44.26;101406.19;5051807;28;20102;-60
2022/03/26 07:26:54;;;;;;;51.22;27.13;;;;;;;12.20;44.04;101408.72;5052240;28;20045;-60
2022/03/26 07:29:20;;;;;;;48.35;25.33;;;;;;;12.22;44.25;101413.03;5052677;28;20060;-60
2022/03/26 07:31:47;;;;;;;56.70;28.58;;;;;;;12.26;44.19;101416.41;5052340;28;20056;-59
2022/03/26 07:34:15;;;;;;;56.17;28.60;;;;;;;12.29;44.08;101421.56;5051912;28;20049;-61
2022/03/26 07:36:42;;;;;;;60.65;31.13;;;;;;;12.31;44.00;101413.59;5051099;28;20045;-61
2022/03/26 07:39:09;;;;;;;61.80;30.13;;;;;;;12.33;43.95;101414.38;5051766;28;20567;-59
2022/03/26 07:41:36;;;;;;;64.50;30.35;;;;;;;12.34;43.97;101416.97;5052045;28;20049;-60
2022/03/26 07:44:03;;;;;;;57.65;30.40;;;;;;;12.35;43.97;101415.19;5052123;28;20091;-61
2022/03/26 07:46:29;;;;;;;57.05;29.70;;;;;;;12.38;43.96;101420.38;5052070;28;20063;-60
2022/03/26 07:48:56;;;;;;;57.65;31.02;;;;;;;12.38;43.95;101418.56;5051390;28;20687;-60
2022/03/26 07:51:23;;;;;;;60.47;30.23;;;;;;;12.43;43.93;101425.47;5049067;28;20053;-60
2022/03/26 07:53:49;;;;;;;61.05;29.38;;;;;;;12.46;44.11;101420.94;5051169;28;20060;-61
2022/03/26 07:56:16;;;;;;;51.67;27.83;;;;;;;12.49;43.98;101420.81;5051492;28;20049;-59
2022/03/26 07:58:43;;;;;;;52.55;28.52;;;;;;;12.53;43.99;101411.00;5051771;28;20513;-62
2022/03/26 08:01:10;;;;;;;53.78;27.60;;;;;;;12.58;44.14;101414.31;5051479;28;20060;-61
2022/03/26 08:03:37;;;;;;;50.95;27.40;;;;;;;12.62;44.06;101418.56;5050649;28;20481;-61
2022/03/26 08:06:04;;;;;;;47.38;25.10;;;;;;;12.68;43.94;101414.84;5051686;28;20049;-60
2022/03/26 08:08:34;;;;;;;46.10;24.35;;;;;;;12.73;44.05;101409.34;5051593;28;20478;-60
2022/03/26 08:11:02;;;;;;;49.17;25.55;;;;;;;12.79;44.09;101413.53;5051389;28;20106;-62
2022/03/26 08:13:29;;;;;;;46.42;24.98;;;;;;;12.86;44.13;101420.31;5050397;28;20045;-60
2022/03/26 08:15:55;;;;;;;49.42;25.80;;;;;;;12.92;44.03;101419.19;5051502;28;20049;-61
2022/03/26 08:18:22;;;;;;;131.60;29.50;;;;;;;12.98;44.50;101421.59;5051080;28;20053;-60
2022/03/26 08:20:48;;;;;;;121.40;27.95;;;;;;;13.04;44.26;101421.34;5050503;28;20091;-60
2022/03/26 08:23:15;;;;;;;58.55;24.90;;;;;;;13.09;44.28;101421.16;5051047;28;20080;-60
2022/03/26 08:28:27;;;;;;;214.27;30.90;;;;;;;13.23;44.34;101417.97;5051195;28;20049;-60
2022/03/26 08:30:54;;;;;;;153.00;27.17;;;;;;;13.29;44.34;101418.56;5050747;28;20057;-60
2022/03/26 08:33:20;;;;;;;49.88;22.13;;;;;;;13.35;44.44;101416.56;5050713;28;20114;-60
2022/03/26 08:35:47;;;;;;;40.88;21.38;;;;;;;13.43;44.38;101420.59;5049386;28;20053;-60
2022/03/26 08:38:13;;;;;;;39.47;19.98;;;;;;;13.50;44.54;101423.03;5050722;28;20126;-61
2022/03/26 08:40:40;;;;;;;36.08;19.30;;;;;;;13.57;44.53;101421.81;5050531;28;20056;-61
2022/03/26 08:43:07;;;;;;;36.17;19.33;;;;;;;13.64;44.49;101420.66;5050476;28;20532;-59
2022/03/26 08:45:37;;;;;;;34.72;19.40;;;;;;;13.71;44.46;101409.81;5050860;28;20057;-60
2022/03/26 08:48:04;;;;;;;30.20;16.88;;;;;;;13.81;44.67;101413.75;5050433;28;20045;-63
2022/03/26 08:50:32;;;;;;;28.23;15.07;;;;;;;13.90;44.64;101418.66;5048974;28;20053;-60
2022/03/26 08:52:59;;;;;;;28.58;13.88;;;;;;;13.98;44.85;101426.25;5050484;28;20455;-60
2022/03/26 08:55:26;;;;;;;24.10;14.02;;;;;;;14.05;44.76;101417.09;5048726;28;20053;-60
2022/03/26 08:57:52;;;;;;;25.00;14.80;;;;;;;14.15;44.53;101427.28;5049709;28;20409;-60
2022/03/26 09:00:20;;;;;;;23.88;14.82;;;;;;;14.23;44.65;101429.56;5050372;28;20099;-60
2022/03/26 09:02:46;;;;;;;25.88;15.40;;;;;;;14.32;44.35;101431.81;5050104;28;20491;-60
2022/03/26 09:05:14;;;;;;;23.65;13.88;;;;;;;14.40;44.46;101427.03;5050844;28;20057;-61
2022/03/26 09:07:41;;;;;;;25.73;14.10;;;;;;;14.50;44.23;101426.59;5049756;28;20470;-62
2022/03/26 09:10:08;;;;;;;19.90;12.68;;;;;;;14.59;44.18;101426.16;5050683;28;20041;-60
2022/03/26 09:12:35;;;;;;;23.23;12.90;;;;;;;14.67;44.14;101413.41;5049297;28;20057;-60
2022/03/26 09:15:02;;;;;;;17.05;10.05;;;;;;;14.77;44.05;101426.25;5050142;28;20283;-61
2022/03/26 09:17:29;;;;;;;25.25;11.13;;;;;;;14.87;44.02;101418.72;5050434;28;20130;-60
2022/03/26 09:19:55;;;;;;;41.35;11.93;;;;;;;14.96;43.74;101413.81;5050151;28;20082;-59
2022/03/26 09:22:23;;;;;;;55.75;12.23;;;;;;;15.05;43.83;101420.47;5049668;28;20053;-60
2022/03/26 09:24:51;;;;;;;45.17;10.52;;;;;;;15.16;43.77;101422.59;5049769;28;20478;-60
2022/03/26 09:27:18;;;;;;;55.15;11.57;;;;;;;15.26;43.90;101430.06;5048898;28;20061;-60
2022/03/26 09:29:45;;;;;;;16.98;9.80;;;;;;;15.35;43.80;101429.63;5049472;28;20489;-60
2022/03/26 09:32:11;;;;;;;15.15;9.75;;;;;;;15.45;43.44;101428.22;5050255;28;20056;-60
2022/03/26 09:34:38;;;;;;;23.48;11.43;;;;;;;15.56;43.46;101422.38;5050175;28;20103;-60
2022/03/26 09:37:05;;;;;;;31.50;11.25;;;;;;;15.66;43.21;101422.72;5049868;28;20057;-64
2022/03/26 09:39:32;;;;;;;15.90;10.43;;;;;;;15.77;42.72;101422.19;5049696;28;20048;-60
2022/03/26 09:41:58;;;;;;;19.33;11.00;;;;;;;15.88;42.82;101424.25;5049622;28;20049;-60
2022/03/26 09:44:26;;;;;;;19.17;10.68;;;;;;;16.00;42.27;101431.63;5049821;28;20048;-63
2022/03/26 09:46:53;;;;;;;20.55;12.13;;;;;;;16.11;41.75;101436.34;5049737;28;20057;-61
2022/03/26 09:49:20;;;;;;;24.30;13.25;;;;;;;16.22;41.53;101437.59;5049868;28;20085;-60
2022/03/26 09:51:54;;;;;;;26.17;14.38;;;;;;;16.30;41.27;101435.41;5050073;28;20060;-60
2022/03/26 09:54:22;;;;;;;24.60;15.90;;;;;;;16.42;41.53;101428.53;5050140;28;20049;-66
2022/03/26 09:56:49;;;;;;;27.88;16.73;;;;;;;16.51;41.53;101422.72;5048313;28;20049;-61
2022/03/26 09:59:22;;;;;;;27.05;17.73;;;;;;;16.59;41.56;101432.06;5049659;28;20041;-62
2022/03/26 10:01:49;;;;;;;26.80;17.73;;;;;;;16.68;41.63;101426.22;5048664;28;20059;-61
2022/03/26 10:04:18;;;;;;;28.10;17.65;;;;;;;16.77;41.39;101425.72;5048505;28;20056;-60
2022/03/26 10:06:52;;;;;;;34.75;19.10;;;;;;;16.84;41.45;101420.91;5048118;28;20417;-60
2022/03/26 10:09:40;;;;;;;30.92;19.05;;;;;;;16.93;41.20;101430.13;5048329;28;20057;-61
2022/03/26 10:12:10;;;;;;;27.92;17.25;;;;;;;17.06;41.29;101423.22;5050127;28;20045;-59
2022/03/26 10:14:44;;;;;;;26.60;16.50;;;;;;;17.17;41.26;101419.06;5049850;28;20478;-60
2022/03/26 10:17:27;;;;;;;33.33;18.48;;;;;;;17.30;41.15;101422.72;5049551;28;20514;-61
2022/03/26 10:20:06;;;;;;;28.58;17.85;;;;;;;17.43;40.57;101424.66;5050569;28;20049;-62
2022/03/26 10:22:41;;;;;;;27.75;17.27;;;;;;;17.56;41.02;101422.13;5053635;28;20056;-61
2022/03/26 10:25:08;;;;;;;32.72;19.10;;;;;;;17.70;40.12;101415.97;5053739;28;20049;-60
2022/03/26 10:27:38;;;;;;;27.35;17.45;;;;;;;17.82;40.14;101422.34;5052440;28;20143;-60
2022/03/26 10:30:10;;;;;;;27.58;17.67;;;;;;;17.94;40.20;101418.09;5052155;28;20045;-62
2022/03/26 10:32:45;;;;;;;26.98;16.70;;;;;;;18.05;40.16;101422.75;5052325;28;20111;-60
2022/03/26 10:35:17;;;;;;;27.70;16.98;;;;;;;18.17;39.83;101426.50;5053505;28;20111;-61
2022/03/26 10:38:01;;;;;;;28.52;16.95;;;;;;;18.26;39.29;101417.91;5053520;28;20095;-60
2022/03/26 10:40:36;;;;;;;30.13;17.20;;;;;;;18.39;39.54;101414.47;5051659;28;20044;-60
2022/03/26 10:43:11;;;;;;;28.48;17.42;;;;;;;18.50;39.36;101417.28;5052132;28;20044;-61
2022/03/26 10:45:48;;;;;;;28.50;17.77;;;;;;;18.60;39.65;101415.75;5053270;28;20102;-60
2022/03/26 10:48:15;;;;;;;29.23;18.02;;;;;;;18.74;39.75;101412.22;5051842;28;20493;-60
2022/03/26 10:50:42;;;;;;;27.10;18.00;;;;;;;18.87;39.81;101403.38;5052810;28;20049;-60
2022/03/26 10:53:14;;;;;;;34.35;19.02;;;;;;;18.98;39.43;101403.53;5052953;28;20505;-60
2022/03/26 10:55:42;;;;;;;27.40;18.00;;;;;;;19.11;39.58;101408.91;5051977;28;20044;-61
2022/03/26 10:58:09;;;;;;;31.33;18.85;;;;;;;19.22;39.50;101402.84;5052902;28;20532;-61
2022/03/26 11:00:36;;;;;;;25.08;16.52;;;;;;;19.37;39.44;101408.97;5051390;28;20050;-60
2022/03/26 11:03:03;;;;;;;25.73;15.80;;;;;;;19.51;38.81;101405.38;5051387;28;20041;-61
2022/03/26 11:05:32;;;;;;;24.73;15.95;;;;;;;19.67;38.75;101401.66;5053059;28;20706;-60
2022/03/26 11:08:00;;;;;;;25.65;15.95;;;;;;;19.81;38.62;101400.66;5051457;28;20041;-60
2022/03/26 11:10:30;;;;;;;22.27;14.45;;;;;;;19.97;38.70;101399.59;5051455;28;20056;-62
2022/03/26 11:12:59;;;;;;;22.42;14.32;;;;;;;20.17;39.02;101404.41;5052640;28;20056;-61